Time;durP1;ratioP1;P1;durP2;ratioP2;P2;SDS_P1;SDS_P2;PMS_P1;PMS_P2;Temp;Humidity;BMP_temperature;BMP_pressure;BME280_temperature;BME280_humidity;BME280_pressure;Samples;Min_cycle;Max_cycle;Signal;HPM_P1;HPM_P2
2023/10/07 00:02:42;;;;;;;;;;;;;;;;;;6339116;28;20372;-86
2023/10/07 00:05:42;;;;;;;;;;;;;;;;;;6315450;28;19916;-87
2023/10/07 00:08:44;;;;;;;;;;;;;;;;;;6315995;28;19919;-86
2023/10/07 00:11:46;;;;;;;;;;;;;;;;;;6313844;28;19927;-86
2023/10/07 00:14:47;;;;;;;;;;;;;;;;;;6310319;28;19920;-86
2023/10/07 00:17:47;;;;;;;;;;;;;;;;;;6333893;28;19919;-86
2023/10/07 00:20:55;;;;;;;;;;;;;;;;;;6337163;28;20280;-86
2023/10/07 00:23:56;;;;;;;;;;;;;;;;;;6323803;28;19950;-86
2023/10/07 00:26:59;;;;;;;;;;;;;;;;;;6328918;28;19920;-82
2023/10/07 00:30:01;;;;;;;;;;;;;;;;;;6338560;28;19916;-80
2023/10/07 00:33:03;;;;;;;;;;;;;;;;;;6322175;28;19919;-80
2023/10/07 00:36:04;;;;;;;;;;;;;;;;;;6314903;28;19998;-80
2023/10/07 00:39:08;;;;;;;;;;;;;;;;;;6306955;28;19948;-81
2023/10/07 00:42:10;;;;;;;;;;;;;;;;;;6334623;28;19915;-81
2023/10/07 00:45:15;;;;;;;;;;;;;;;;;;6326271;28;20288;-80
2023/10/07 00:48:16;;;;;;;;;;;;;;;;;;6329405;28;19911;-81
2023/10/07 00:51:24;;;;;;;;;;;;;;;;;;6321634;28;20010;-81
2023/10/07 01:00:55;;;;;;;;;;;;;;;;;;6326196;28;19916;-81
2023/10/07 01:03:56;;;;;;;;;;;;;;;;;;6330996;28;19911;-81
2023/10/07 01:07:03;;;;;;;;;;;;;;;;;;6332629;28;19919;-81
2023/10/07 01:13:24;;;;;;;;;;;;;;;;;;6326633;28;19919;-80
2023/10/07 01:19:35;;;;;;;;;;;;;;;;;;6339108;28;19908;-81
2023/10/07 01:22:36;;;;;;;;;;;;;;;;;;6336877;28;19916;-81
2023/10/07 01:25:44;;;;;;;;;;;;;;;;;;6337573;28;19938;-81
2023/10/07 01:28:44;;;;;;;;;;;;;;;;;;6333786;28;19912;-81
2023/10/07 01:32:19;;;;;;;;;;;;;;;;;;6329539;28;19961;-81
2023/10/07 01:35:13;;;;;;;;;;;;;;;;;;6340910;28;19918;-81
2023/10/07 01:38:18;;;;;;;;;;;;;;;;;;6333338;28;20305;-87
2023/10/07 01:41:21;;;;;;;;;;;;;;;;;;6336485;28;19908;-87
2023/10/07 01:44:24;;;;;;;;;;;;;;;;;;6342155;28;20370;-86
2023/10/07 01:47:25;;;;;;;;;;;;;;;;;;6331115;28;20377;-87
2023/10/07 01:50:25;;;;;;;;;;;;;;;;;;6318113;28;19912;-87
2023/10/07 01:53:27;;;;;;;;;;;;;;;;;;6320366;28;19911;-86
2023/10/07 01:56:29;;;;;;;;;;;;;;;;;;6333172;28;19920;-87
2023/10/07 01:59:29;;;;;;;;;;;;;;;;;;6314223;28;20004;-87
2023/10/07 02:02:30;;;;;;;;;;;;;;;;;;6331340;28;19912;-86
2023/10/07 02:05:40;;;;;;;;;;;;;;;;;;6302312;28;19908;-87
2023/10/07 02:08:40;;;;;;;;;;;;;;;;;;6305013;28;19911;-86
2023/10/07 02:11:40;;;;;;;;;;;;;;;;;;6335837;27;20550;-87
2023/10/07 02:14:42;;;;;;;;;;;;;;;;;;6315613;28;19915;-87
2023/10/07 02:17:46;;;;;;;;;;;;;;;;;;6309282;28;20366;-87
2023/10/07 02:20:50;;;;;;;;;;;;;;;;;;6323259;28;19916;-87
2023/10/07 02:23:50;;;;;;;;;;;;;;;;;;6321972;28;19908;-87
2023/10/07 02:26:54;;;;;;;;;;;;;;;;;;6330573;28;19918;-87
2023/10/07 02:29:56;;;;;;;;;;;;;;;;;;6339206;28;19934;-87
2023/10/07 02:32:56;;;;;;;;;;;;;;;;;;6338138;28;19916;-87
2023/10/07 02:35:57;;;;;;;;;;;;;;;;;;6317168;28;19915;-87
2023/10/07 02:39:00;;;;;;;;;;;;;;;;;;6342320;28;19912;-87
2023/10/07 02:42:03;;;;;;;;;;;;;;;;;;6319103;28;19916;-87
2023/10/07 02:48:19;;;;;;;;;;;;;;;;;;6342451;28;19914;-80
2023/10/07 02:51:19;;;;;;;;;;;;;;;;;;6330622;28;19911;-80
2023/10/07 02:54:20;;;;;;;;;;;;;;;;;;6328347;28;19908;-81
2023/10/07 02:57:34;;;;;;;;;;;;;;;;;;6300058;28;19920;-81
2023/10/07 03:00:49;;;;;;;;;;;;;;;;;;6327014;28;20282;-81
2023/10/07 03:03:49;;;;;;;;;;;;;;;;;;6341664;28;20411;-81
2023/10/07 03:06:52;;;;;;;;;;;;;;;;;;6328577;28;19955;-80
2023/10/07 03:09:54;;;;;;;;;;;;;;;;;;6329107;28;20399;-81
2023/10/07 03:12:57;;;;;;;;;;;;;;;;;;6313062;28;19912;-81
2023/10/07 03:16:28;;;;;;;;;;;;;;;;;;6307549;28;19923;-81
2023/10/07 03:19:20;;;;;;;;;;;;;;;;;;6327571;28;20362;-81
2023/10/07 03:22:26;;;;;;;;;;;;;;;;;;6333291;28;20370;-82
2023/10/07 03:25:32;;;;;;;;;;;;;;;;;;6316398;28;20331;-81
2023/10/07 03:28:35;;;;;;;;;;;;;;;;;;6331608;28;19911;-82
2023/10/07 03:34:45;;;;;;;;;;;;;;;;;;6337463;28;19908;-81
2023/10/07 03:37:45;;;;;;;;;;;;;;;;;;6330607;28;20040;-82
2023/10/07 03:40:53;;;;;;;;;;;;;;;;;;6320912;28;19916;-82
2023/10/07 03:43:53;;;;;;;;;;;;;;;;;;6331057;28;19968;-81
2023/10/07 03:46:57;;;;;;;;;;;;;;;;;;6312126;28;19965;-81
2023/10/07 03:49:58;;;;;;;;;;;;;;;;;;6334908;28;20313;-82
2023/10/07 03:52:58;;;;;;;;;;;;;;;;;;6338538;28;19919;-82
2023/10/07 03:55:58;;;;;;;;;;;;;;;;;;6319932;28;19959;-82
2023/10/07 03:58:59;;;;;;;;;;;;;;;;;;6320260;28;19912;-82
2023/10/07 04:02:00;;;;;;;;;;;;;;;;;;6311380;28;19915;-82
2023/10/07 04:05:09;;;;;;;;;;;;;;;;;;6303632;28;19912;-82
2023/10/07 04:08:09;;;;;;;;;;;;;;;;;;6339840;28;19918;-82
2023/10/07 04:11:09;;;;;;;;;;;;;;;;;;6338060;27;19916;-81
2023/10/07 04:14:28;;;;;;;;;;;;;;;;;;6313182;28;19933;-81
2023/10/07 04:17:31;;;;;;;;;;;;;;;;;;6324934;28;19912;-81
2023/10/07 04:23:44;;;;;;;;;;;;;;;;;;6322857;28;20370;-82
2023/10/07 04:26:54;;;;;;;;;;;;;;;;;;6311014;28;19922;-81
2023/10/07 04:29:54;;;;;;;;;;;;;;;;;;6311372;28;19912;-82
2023/10/07 04:32:55;;;;;;;;;;;;;;;;;;6338833;28;20283;-80
2023/10/07 04:35:58;;;;;;;;;;;;;;;;;;6338667;28;19916;-82
2023/10/07 04:38:59;;;;;;;;;;;;;;;;;;6309371;28;19916;-82
2023/10/07 04:42:03;;;;;;;;;;;;;;;;;;6331379;28;20289;-83
2023/10/07 04:45:22;;;;;;;;;;;;;;;;;;6337692;28;19947;-83
2023/10/07 04:48:40;;;;;;;;;;;;;;;;;;6322768;28;19947;-82
2023/10/07 04:54:44;;;;;;;;;;;;;;;;;;6330899;28;19916;-82
2023/10/07 05:01:04;;;;;;;;;;;;;;;;;;6329025;28;19916;-83
2023/10/07 05:04:05;;;;;;;;;;;;;;;;;;6331319;28;19962;-82
2023/10/07 05:07:05;;;;;;;;;;;;;;;;;;6310134;28;19912;-88
2023/10/07 05:10:07;;;;;;;;;;;;;;;;;;6325920;27;19915;-88
2023/10/07 05:13:07;;;;;;;;;;;;;;;;;;6341043;27;19912;-89
2023/10/07 05:16:08;;;;;;;;;;;;;;;;;;6325856;28;19947;-88
2023/10/07 05:19:09;;;;;;;;;;;;;;;;;;6303420;28;19922;-88
2023/10/07 05:22:15;;;;;;;;;;;;;;;;;;6326805;28;19912;-88
2023/10/07 05:25:16;;;;;;;;;;;;;;;;;;6304204;28;19999;-88
2023/10/07 05:28:27;;;;;;;;;;;;;;;;;;6333375;28;19912;-88
2023/10/07 05:31:27;;;;;;;;;;;;;;;;;;6341202;28;19923;-88
2023/10/07 05:34:28;;;;;;;;;;;;;;;;;;6330155;28;19916;-89
2023/10/07 05:37:28;;;;;;;;;;;;;;;;;;6330475;28;20452;-88
2023/10/07 05:40:28;;;;;;;;;;;;;;;;;;6330652;28;19923;-88
2023/10/07 05:43:29;;;;;;;;;;;;;;;;;;6329393;28;19919;-88
2023/10/07 05:46:29;;;;;;;;;;;;;;;;;;6307865;28;19919;-88
2023/10/07 05:49:31;;;;;;;;;;;;;;;;;;6333849;28;19920;-88
2023/10/07 05:52:32;;;;;;;;;;;;;;;;;;6330421;28;19922;-88
2023/10/07 05:55:33;;;;;;;;;;;;;;;;;;6324076;28;19912;-88
2023/10/07 05:58:33;;;;;;;;;;;;;;;;;;6335782;28;20527;-88
2023/10/07 06:01:33;;;;;;;;;;;;;;;;;;6343623;28;19960;-88
2023/10/07 06:04:34;;;;;;;;;;;;;;;;;;6316978;28;19912;-88
2023/10/07 06:07:35;;;;;;;;;;;;;;;;;;6331482;28;19919;-88
2023/10/07 06:10:37;;;;;;;;;;;;;;;;;;6337148;28;20331;-88
2023/10/07 06:13:40;;;;;;;;;;;;;;;;;;6335257;28;19947;-88
2023/10/07 06:16:40;;;;;;;;;;;;;;;;;;6332370;28;19934;-83
2023/10/07 06:19:56;;;;;;;;;;;;;;;;;;6333113;28;20003;-82
2023/10/07 06:22:56;;;;;;;;;;;;;;;;;;6316268;28;19920;-82
2023/10/07 06:26:01;;;;;;;;;;;;;;;;;;6307760;28;19908;-82
2023/10/07 06:29:06;;;;;;;;;;;;;;;;;;6339222;28;19914;-80
2023/10/07 06:32:22;;;;;;;;;;;;;;;;;;6320913;28;19923;-80
2023/10/07 06:35:23;;;;;;;;;;;;;;;;;;6334023;28;19914;-82
2023/10/07 06:38:23;;;;;;;;;;;;;;;;;;6349548;28;19919;-82
2023/10/07 06:41:24;;;;;;;;;;;;;;;;;;6340082;28;19923;-82
2023/10/07 06:44:27;;;;;;;;;;;;;;;;;;6324426;28;19923;-83
2023/10/07 06:47:29;;;;;;;;;;;;;;;;;;6323274;28;19915;-83
2023/10/07 06:50:29;;;;;;;;;;;;;;;;;;6329375;28;20473;-82
2023/10/07 06:53:38;;;;;;;;;;;;;;;;;;6338888;28;19912;-83
2023/10/07 06:56:39;;;;;;;;;;;;;;;;;;6338651;28;19924;-82
2023/10/07 06:59:45;;;;;;;;;;;;;;;;;;6339444;28;20424;-82
2023/10/07 07:02:54;;;;;;;;;;;;;;;;;;6322690;28;19942;-83
2023/10/07 07:05:54;;;;;;;;;;;;;;;;;;6334425;28;19919;-82
2023/10/07 07:08:54;;;;;;;;;;;;;;;;;;6336693;28;19911;-82
2023/10/07 07:11:57;;;;;;;;;;;;;;;;;;6320976;28;20511;-83
2023/10/07 07:15:04;;;;;;;;;;;;;;;;;;6335139;28;19912;-82
2023/10/07 07:18:14;;;;;;;;;;;;;;;;;;6317408;28;19998;-82
2023/10/07 07:21:41;;;;;;;;;;;;;;;;;;6340687;28;19916;-81
2023/10/07 07:24:41;;;;;;;;;;;;;;;;;;6339298;28;19916;-82
2023/10/07 07:27:52;;;;;;;;;;;;;;;;;;6335807;28;20421;-82
2023/10/07 07:30:57;;;;;;;;;;;;;;;;;;6337661;28;19912;-82
2023/10/07 07:34:06;;;;;;;;;;;;;;;;;;6327276;28;19919;-83
2023/10/07 07:37:10;;;;;;;;;;;;;;;;;;6329203;28;19911;-82
2023/10/07 07:40:35;;;;;;;;;;;;;;;;;;6321559;28;19912;-82
2023/10/07 07:43:36;;;;;;;;;;;;;;;;;;6339203;28;19934;-82
2023/10/07 07:46:51;;;;;;;;;;;;;;;;;;6352097;28;19911;-82
2023/10/07 07:49:51;;;;;;;;;;;;;;;;;;6321641;28;20036;-83
2023/10/07 07:52:53;;;;;;;;;;;;;;;;;;6324900;28;19945;-80
2023/10/07 07:55:56;;;;;;;;;;;;;;;;;;6317603;28;19923;-83
2023/10/07 07:58:56;;;;;;;;;;;;;;;;;;6341451;28;20000;-83
2023/10/07 08:02:12;;;;;;;;;;;;;;;;;;6342091;28;19916;-83
2023/10/07 08:05:15;;;;;;;;;;;;;;;;;;6332659;28;19912;-83
2023/10/07 08:08:24;;;;;;;;;;;;;;;;;;6341359;28;19919;-82
2023/10/07 08:11:24;;;;;;;;;;;;;;;;;;6310904;28;19922;-82
2023/10/07 08:14:24;;;;;;;;;;;;;;;;;;6319795;28;19908;-82
2023/10/07 08:17:27;;;;;;;;;;;;;;;;;;6329640;28;20286;-82
2023/10/07 08:20:37;;;;;;;;;;;;;;;;;;6329757;28;19916;-82
2023/10/07 08:23:46;;;;;;;;;;;;;;;;;;6333183;28;19911;-80
2023/10/07 08:26:49;;;;;;;;;;;;;;;;;;6317720;28;20044;-82
2023/10/07 08:29:53;;;;;;;;;;;;;;;;;;6324263;28;19918;-81
2023/10/07 08:32:53;;;;;;;;;;;;;;;;;;6331892;28;20728;-81
2023/10/07 08:35:55;;;;;;;;;;;;;;;;;;6331421;28;19912;-82
2023/10/07 08:38:56;;;;;;;;;;;;;;;;;;6320334;28;20366;-81
2023/10/07 08:41:59;;;;;;;;;;;;;;;;;;6328565;28;19959;-82
2023/10/07 08:44:59;;;;;;;;;;;;;;;;;;6331935;28;19912;-82
2023/10/07 08:48:08;;;;;;;;;;;;;;;;;;6311069;28;19911;-81
2023/10/07 08:51:21;;;;;;;;;;;;;;;;;;6310546;28;19915;-82
2023/10/07 08:54:31;;;;;;;;;;;;;;;;;;6312074;27;19951;-83
2023/10/07 08:57:34;;;;;;;;;;;;;;;;;;6327135;28;19930;-82
2023/10/07 09:00:38;;;;;;;;;;;;;;;;;;6340108;28;19919;-82
2023/10/07 09:03:39;;;;;;;;;;;;;;;;;;6313593;28;20389;-82
2023/10/07 09:06:45;;;;;;;;;;;;;;;;;;6323447;28;19912;-81
2023/10/07 09:09:45;;;;;;;;;;;;;;;;;;6326052;28;19951;-83
2023/10/07 09:12:46;;;;;;;;;;;;;;;;;;6322197;28;19926;-81
2023/10/07 09:15:52;;;;;;;;;;;;;;;;;;6327540;28;19961;-82
2023/10/07 09:18:55;;;;;;;;;;;;;;;;;;6308082;28;19936;-81
2023/10/07 09:21:57;;;;;;;;;;;;;;;;;;6329964;28;20400;-82
2023/10/07 09:25:18;;;;;;;;;;;;;;;;;;6337885;27;19916;-81
2023/10/07 09:28:19;;;;;;;;;;;;;;;;;;6333099;27;20015;-82
2023/10/07 09:31:23;;;;;;;;;;;;;;;;;;6323634;28;20365;-82
2023/10/07 09:34:41;;;;;;;;;;;;;;;;;;6337695;28;19915;-82
2023/10/07 09:37:42;;;;;;;;;;;;;;;;;;6321906;28;19923;-81
2023/10/07 09:44:01;;;;;;;;;;;;;;;;;;6327939;28;19920;-82
2023/10/07 09:47:10;;;;;;;;;;;;;;;;;;6335332;28;19938;-82
2023/10/07 09:50:25;;;;;;;;;;;;;;;;;;6348112;27;19927;-82
2023/10/07 09:53:27;;;;;;;;;;;;;;;;;;6343019;28;19916;-82
2023/10/07 09:56:29;;;;;;;;;;;;;;;;;;6331627;28;19935;-82
2023/10/07 09:59:32;;;;;;;;;;;;;;;;;;6328310;28;19912;-85
2023/10/07 10:02:32;;;;;;;;;;;;;;;;;;6314581;28;19911;-81
2023/10/07 10:05:35;;;;;;;;;;;;;;;;;;6336631;27;21465;-83
2023/10/07 10:08:36;;;;;;;;;;;;;;;;;;6331591;28;20034;-83
2023/10/07 10:14:57;;;;;;;;;;;;;;;;;;6353530;27;19912;-81
2023/10/07 10:18:02;;;;;;;;;;;;;;;;;;6332541;28;20358;-82
2023/10/07 10:21:05;;;;;;;;;;;;;;;;;;6325172;27;19952;-81
2023/10/07 10:24:05;;;;;;;;;;;;;;;;;;6317666;28;19912;-82
2023/10/07 10:27:07;;;;;;;;;;;;;;;;;;6330856;28;20027;-81
2023/10/07 10:30:10;;;;;;;;;;;;;;;;;;6329935;27;20324;-82
2023/10/07 10:33:11;;;;;;;;;;;;;;;;;;6337882;28;20442;-82
2023/10/07 10:36:13;;;;;;;;;;;;;;;;;;6314640;28;19951;-81
2023/10/07 10:39:18;;;;;;;;;;;;;;;;;;6320030;28;19908;-80
2023/10/07 10:42:18;;;;;;;;;;;;;;;;;;6334481;28;20489;-81
2023/10/07 10:45:19;;;;;;;;;;;;;;;;;;6312180;28;19914;-83
2023/10/07 10:48:19;;;;;;;;;;;;;;;;;;6331385;28;19912;-84
2023/10/07 10:51:19;;;;;;;;;;;;;;;;;;6325892;28;20465;-82
2023/10/07 10:54:19;;;;;;;;;;;;;;;;;;6324953;28;20303;-81
2023/10/07 10:57:24;;;;;;;;;;;;;;;;;;6324937;28;19927;-83
2023/10/07 11:00:24;;;;;;;;;;;;;;;;;;6331825;28;20292;-83
2023/10/07 11:03:24;;;;;;;;;;;;;;;;;;6333673;28;19916;-83
2023/10/07 11:06:26;;;;;;;;;;;;;;;;;;6329856;28;19994;-83
2023/10/07 11:09:33;;;;;;;;;;;;;;;;;;6310509;28;19911;-81
2023/10/07 11:12:36;;;;;;;;;;;;;;;;;;6335700;27;19916;-84
2023/10/07 11:15:41;;;;;;;;;;;;;;;;;;6334038;28;19908;-83
2023/10/07 11:18:47;;;;;;;;;;;;;;;;;;6332013;28;20022;-83
2023/10/07 11:21:48;;;;;;;;;;;;;;;;;;6305475;28;19974;-83
2023/10/07 11:24:50;;;;;;;;;;;;;;;;;;6333028;28;19919;-83
2023/10/07 11:27:51;;;;;;;;;;;;;;;;;;6318339;28;20048;-83
2023/10/07 11:30:52;;;;;;;;;;;;;;;;;;6328422;28;19923;-83
2023/10/07 11:33:52;;;;;;;;;;;;;;;;;;6332148;28;19932;-83
2023/10/07 11:36:52;;;;;;;;;;;;;;;;;;6306454;28;20017;-83
2023/10/07 11:39:53;;;;;;;;;;;;;;;;;;6332527;28;20332;-83
2023/10/07 11:42:53;;;;;;;;;;;;;;;;;;6322803;28;20302;-82
2023/10/07 11:45:53;;;;;;;;;;;;;;;;;;6300984;28;19916;-83
2023/10/07 11:48:54;;;;;;;;;;;;;;;;;;6322792;28;19912;-83
2023/10/07 11:51:54;;;;;;;;;;;;;;;;;;6331050;28;19916;-83
2023/10/07 11:54:54;;;;;;;;;;;;;;;;;;6312113;28;19912;-83
2023/10/07 11:57:54;;;;;;;;;;;;;;;;;;6311656;28;19923;-82
2023/10/07 12:00:55;;;;;;;;;;;;;;;;;;6332750;28;19931;-80
2023/10/07 12:03:55;;;;;;;;;;;;;;;;;;6318964;28;19923;-82
2023/10/07 12:06:56;;;;;;;;;;;;;;;;;;6335115;28;20269;-88
2023/10/07 12:09:57;;;;;;;;;;;;;;;;;;6333673;28;19912;-88
2023/10/07 12:12:58;;;;;;;;;;;;;;;;;;6338137;28;19916;-89
2023/10/07 12:16:00;;;;;;;;;;;;;;;;;;6308018;28;19923;-90
2023/10/07 12:19:00;;;;;;;;;;;;;;;;;;6313501;28;19944;-89
2023/10/07 12:22:00;;;;;;;;;;;;;;;;;;6329667;28;19914;-88
2023/10/07 12:25:00;;;;;;;;;;;;;;;;;;6337399;28;20250;-89
2023/10/07 12:28:05;;;;;;;;;;;;;;;;;;6326650;28;19908;-89
2023/10/07 12:31:05;;;;;;;;;;;;;;;;;;6309384;28;19920;-89
2023/10/07 12:34:05;;;;;;;;;;;;;;;;;;6338755;28;19919;-89
2023/10/07 12:37:05;;;;;;;;;;;;;;;;;;6326658;28;19920;-88
2023/10/07 12:40:10;;;;;;;;;;;;;;;;;;6337183;28;19912;-88
2023/10/07 12:43:10;;;;;;;;;;;;;;;;;;6332402;28;19916;-89
2023/10/07 12:46:10;;;;;;;;;;;;;;;;;;6312644;28;20337;-89
2023/10/07 12:49:10;;;;;;;;;;;;;;;;;;6333606;28;19916;-89
2023/10/07 12:52:11;;;;;;;;;;;;;;;;;;6332539;28;19958;-88
2023/10/07 12:55:12;;;;;;;;;;;;;;;;;;6331759;28;19919;-89
2023/10/07 12:58:19;;;;;;;;;;;;;;;;;;6293705;28;19924;-89
2023/10/07 13:01:19;;;;;;;;;;;;;;;;;;6308793;28;20649;-88
2023/10/07 13:04:20;;;;;;;;;;;;;;;;;;6312524;28;19919;-88
2023/10/07 13:07:20;;;;;;;;;;;;;;;;;;6305443;28;19934;-89
2023/10/07 13:10:20;;;;;;;;;;;;;;;;;;6306180;28;19916;-89
2023/10/07 13:13:22;;;;;;;;;;;;;;;;;;6292119;28;19923;-88
2023/10/07 13:16:23;;;;;;;;;;;;;;;;;;6304075;28;19916;-88
2023/10/07 13:19:26;;;;;;;;;;;;;;;;;;6317881;28;19970;-82
2023/10/07 13:22:26;;;;;;;;;;;;;;;;;;6280028;28;19982;-82
2023/10/07 13:25:26;;;;;;;;;;;;;;;;;;6286405;28;19912;-82
2023/10/07 13:28:26;;;;;;;;;;;;;;;;;;6314283;28;19911;-83
2023/10/07 13:31:27;;;;;;;;;;;;;;;;;;6305790;28;20306;-83
2023/10/07 13:34:28;;;;;;;;;;;;;;;;;;6279379;28;19922;-84
2023/10/07 13:37:29;;;;;;;;;;;;;;;;;;6310422;28;19991;-85
2023/10/07 13:40:30;;;;;;;;;;;;;;;;;;6312392;28;20281;-86
2023/10/07 13:43:33;;;;;;;;;;;;;;;;;;6308159;28;20382;-86
2023/10/07 13:46:33;;;;;;;;;;;;;;;;;;6289285;28;19909;-87
2023/10/07 13:49:34;;;;;;;;;;;;;;;;;;6310576;28;19951;-88
2023/10/07 13:52:44;;;;;;;;;;;;;;;;;;6296902;28;19956;-86
2023/10/07 13:58:44;;;;;;;;;;;;;;;;;;6332861;28;20032;-86
2023/10/07 14:01:46;;;;;;;;;;;;;;;;;;6326112;28;19908;-86
2023/10/07 14:04:47;;;;;;;;;;;;;;;;;;6343346;28;19912;-86
2023/10/07 14:07:48;;;;;;;;;;;;;;;;;;6324329;28;19951;-84
2023/10/07 14:10:50;;;;;;;;;;;;;;;;;;6327345;27;20396;-84
2023/10/07 14:13:50;;;;;;;;;;;;;;;;;;6337040;27;19998;-84
2023/10/07 14:16:58;;;;;;;;;;;;;;;;;;6328927;28;19953;-85
2023/10/07 14:19:58;;;;;;;;;;;;;;;;;;6306786;28;19993;-84
2023/10/07 14:23:01;;;;;;;;;;;;;;;;;;6325339;28;19912;-84
2023/10/07 14:26:02;;;;;;;;;;;;;;;;;;6333879;28;19916;-84
2023/10/07 14:29:05;;;;;;;;;;;;;;;;;;6331097;28;19920;-85
2023/10/07 14:32:09;;;;;;;;;;;;;;;;;;6317090;28;19969;-85
2023/10/07 14:35:11;;;;;;;;;;;;;;;;;;6309930;28;19911;-85
2023/10/07 14:38:11;;;;;;;;;;;;;;;;;;6335169;28;19912;-84
2023/10/07 14:41:13;;;;;;;;;;;;;;;;;;6327549;28;19977;-83
2023/10/07 14:44:13;;;;;;;;;;;;;;;;;;6325982;28;19911;-84
2023/10/07 14:47:14;;;;;;;;;;;;;;;;;;6310922;28;19939;-84
2023/10/07 14:50:14;;;;;;;;;;;;;;;;;;6327796;28;20374;-84
2023/10/07 14:53:14;;;;;;;;;;;;;;;;;;6311725;28;19944;-83
2023/10/07 14:56:15;;;;;;;;;;;;;;;;;;6323569;28;19963;-84
2023/10/07 14:59:16;;;;;;;;;;;;;;;;;;6306211;28;19919;-84
2023/10/07 15:02:18;;;;;;;;;;;;;;;;;;6323713;28;19912;-86
2023/10/07 15:05:19;;;;;;;;;;;;;;;;;;6304594;28;19916;-86
2023/10/07 15:08:20;;;;;;;;;;;;;;;;;;6330894;28;19915;-85
2023/10/07 15:11:20;;;;;;;;;;;;;;;;;;6342071;28;20381;-85
2023/10/07 15:14:20;;;;;;;;;;;;;;;;;;6324738;28;19911;-85
2023/10/07 15:17:20;;;;;;;;;;;;;;;;;;6333055;28;19915;-85
2023/10/07 15:20:22;;;;;;;;;;;;;;;;;;6324515;28;19990;-83
2023/10/07 15:23:22;;;;;;;;;;;;;;;;;;6311807;28;19988;-83
2023/10/07 15:26:24;;;;;;;;;;;;;;;;;;6329958;28;20012;-81
2023/10/07 15:29:25;;;;;;;;;;;;;;;;;;6334185;28;19931;-84
2023/10/07 15:32:25;;;;;;;;;;;;;;;;;;6306923;28;20010;-83
2023/10/07 15:35:25;;;;;;;;;;;;;;;;;;6327598;28;19996;-84
2023/10/07 15:38:27;;;;;;;;;;;;;;;;;;6328257;28;19911;-83
2023/10/07 15:41:27;;;;;;;;;;;;;;;;;;6315727;28;19919;-84
2023/10/07 15:44:27;;;;;;;;;;;;;;;;;;6328138;28;19916;-84
2023/10/07 15:47:27;;;;;;;;;;;;;;;;;;6339166;28;19934;-84
2023/10/07 15:50:27;;;;;;;;;;;;;;;;;;6313120;28;19947;-84
2023/10/07 15:53:29;;;;;;;;;;;;;;;;;;6331557;28;19959;-83
2023/10/07 15:56:29;;;;;;;;;;;;;;;;;;6320377;28;19920;-83
2023/10/07 15:59:32;;;;;;;;;;;;;;;;;;6330762;28;20327;-83
2023/10/07 16:02:33;;;;;;;;;;;;;;;;;;6338999;28;19958;-83
2023/10/07 16:05:34;;;;;;;;;;;;;;;;;;6333209;28;19916;-83
2023/10/07 16:08:36;;;;;;;;;;;;;;;;;;6327492;28;19922;-83
2023/10/07 16:11:37;;;;;;;;;;;;;;;;;;6314959;28;20445;-82
2023/10/07 16:14:38;;;;;;;;;;;;;;;;;;6322764;28;19918;-83
2023/10/07 16:17:40;;;;;;;;;;;;;;;;;;6331150;28;19916;-83
2023/10/07 16:20:41;;;;;;;;;;;;;;;;;;6314608;28;19951;-83
2023/10/07 16:23:41;;;;;;;;;;;;;;;;;;6330058;28;20392;-84
2023/10/07 16:26:41;;;;;;;;;;;;;;;;;;6318213;28;19935;-82
2023/10/07 16:29:41;;;;;;;;;;;;;;;;;;6331134;28;19994;-83
2023/10/07 16:32:42;;;;;;;;;;;;;;;;;;6308292;28;19943;-82
2023/10/07 16:35:43;;;;;;;;;;;;;;;;;;6329822;28;19915;-82
2023/10/07 16:38:44;;;;;;;;;;;;;;;;;;6313935;28;20427;-83
2023/10/07 16:41:45;;;;;;;;;;;;;;;;;;6324441;28;19916;-83
2023/10/07 16:44:45;;;;;;;;;;;;;;;;;;6328525;28;19950;-84
2023/10/07 16:47:45;;;;;;;;;;;;;;;;;;6305836;28;19917;-81
2023/10/07 16:50:45;;;;;;;;;;;;;;;;;;6332568;28;19927;-83
2023/10/07 16:53:45;;;;;;;;;;;;;;;;;;6333554;28;19916;-84
2023/10/07 16:56:46;;;;;;;;;;;;;;;;;;6330328;28;20361;-85
2023/10/07 16:59:46;;;;;;;;;;;;;;;;;;6308315;28;19908;-84
2023/10/07 17:02:46;;;;;;;;;;;;;;;;;;6337231;28;19915;-84
2023/10/07 17:05:48;;;;;;;;;;;;;;;;;;6302398;28;19908;-85
2023/10/07 17:08:49;;;;;;;;;;;;;;;;;;6303350;28;19915;-85
2023/10/07 17:11:49;;;;;;;;;;;;;;;;;;6341988;27;19935;-86
2023/10/07 17:14:50;;;;;;;;;;;;;;;;;;6306684;28;20018;-86
2023/10/07 17:17:50;;;;;;;;;;;;;;;;;;6335591;28;19966;-86
2023/10/07 17:20:50;;;;;;;;;;;;;;;;;;6315369;28;19912;-86
2023/10/07 17:23:50;;;;;;;;;;;;;;;;;;6314523;28;19912;-86
2023/10/07 17:26:50;;;;;;;;;;;;;;;;;;6319694;28;19916;-87
2023/10/07 17:29:51;;;;;;;;;;;;;;;;;;6313612;28;19916;-87
2023/10/07 17:32:51;;;;;;;;;;;;;;;;;;6311029;28;19931;-88
2023/10/07 17:35:51;;;;;;;;;;;;;;;;;;6317035;28;19919;-87
2023/10/07 17:38:51;;;;;;;;;;;;;;;;;;6322128;28;19923;-87
2023/10/07 17:41:52;;;;;;;;;;;;;;;;;;6330649;28;20357;-88
2023/10/07 17:44:52;;;;;;;;;;;;;;;;;;6328264;28;20144;-88
2023/10/07 17:47:52;;;;;;;;;;;;;;;;;;6310864;28;19919;-88
2023/10/07 17:50:52;;;;;;;;;;;;;;;;;;6316498;28;19927;-88
2023/10/07 17:53:53;;;;;;;;;;;;;;;;;;6331098;28;20389;-88
2023/10/07 17:56:53;;;;;;;;;;;;;;;;;;6311960;28;19931;-88
2023/10/07 17:59:54;;;;;;;;;;;;;;;;;;6325533;28;19961;-89
2023/10/07 18:02:55;;;;;;;;;;;;;;;;;;6311301;28;19915;-89
2023/10/07 18:05:56;;;;;;;;;;;;;;;;;;6310321;28;20009;-89
2023/10/07 18:08:56;;;;;;;;;;;;;;;;;;6331782;28;19907;-88
2023/10/07 18:11:56;;;;;;;;;;;;;;;;;;6321358;27;19977;-88
2023/10/07 18:14:56;;;;;;;;;;;;;;;;;;6304231;28;20361;-88
2023/10/07 18:17:56;;;;;;;;;;;;;;;;;;6301410;28;19908;-89
2023/10/07 18:20:59;;;;;;;;;;;;;;;;;;6307984;28;19999;-87
2023/10/07 18:23:59;;;;;;;;;;;;;;;;;;6314975;28;19916;-87
2023/10/07 18:26:59;;;;;;;;;;;;;;;;;;6313625;28;19958;-87
2023/10/07 18:29:59;;;;;;;;;;;;;;;;;;6314870;28;19912;-87
2023/10/07 18:33:02;;;;;;;;;;;;;;;;;;6310384;28;19912;-86
2023/10/07 18:36:02;;;;;;;;;;;;;;;;;;6324890;28;19912;-86
2023/10/07 18:39:05;;;;;;;;;;;;;;;;;;6299785;28;20007;-85
2023/10/07 18:42:05;;;;;;;;;;;;;;;;;;6327761;28;20466;-86
2023/10/07 18:45:05;;;;;;;;;;;;;;;;;;6320910;28;20464;-86
2023/10/07 18:48:05;;;;;;;;;;;;;;;;;;6325503;28;19916;-86
2023/10/07 18:51:06;;;;;;;;;;;;;;;;;;6326900;28;19916;-83
2023/10/07 18:54:06;;;;;;;;;;;;;;;;;;6329572;28;19912;-86
2023/10/07 18:57:07;;;;;;;;;;;;;;;;;;6318367;28;19931;-86
2023/10/07 19:00:08;;;;;;;;;;;;;;;;;;6335968;28;19912;-86
2023/10/07 19:03:08;;;;;;;;;;;;;;;;;;6322512;28;19964;-86
2023/10/07 19:06:08;;;;;;;;;;;;;;;;;;6326667;28;20277;-86
2023/10/07 19:09:09;;;;;;;;;;;;;;;;;;6304296;28;19919;-84
2023/10/07 19:12:09;;;;;;;;;;;;;;;;;;6322642;28;19916;-85
2023/10/07 19:15:09;;;;;;;;;;;;;;;;;;6327404;28;19908;-84
2023/10/07 19:18:10;;;;;;;;;;;;;;;;;;6325746;28;19920;-84
2023/10/07 19:21:10;;;;;;;;;;;;;;;;;;6312797;28;19954;-84
2023/10/07 19:24:10;;;;;;;;;;;;;;;;;;6324928;28;19916;-84
2023/10/07 19:27:10;;;;;;;;;;;;;;;;;;6317235;28;19916;-84
2023/10/07 19:30:11;;;;;;;;;;;;;;;;;;6317617;28;19955;-84
2023/10/07 19:33:13;;;;;;;;;;;;;;;;;;6333165;28;19920;-84
2023/10/07 19:36:13;;;;;;;;;;;;;;;;;;6334711;28;20289;-84
2023/10/07 19:39:17;;;;;;;;;;;;;;;;;;6306861;28;20385;-84
2023/10/07 19:42:18;;;;;;;;;;;;;;;;;;6336384;28;20025;-84
2023/10/07 19:45:18;;;;;;;;;;;;;;;;;;6340032;28;19915;-86
2023/10/07 19:48:18;;;;;;;;;;;;;;;;;;6315598;28;19958;-83
2023/10/07 19:51:18;;;;;;;;;;;;;;;;;;6314996;28;19930;-84
2023/10/07 19:54:18;;;;;;;;;;;;;;;;;;6338299;28;19920;-84
2023/10/07 19:57:19;;;;;;;;;;;;;;;;;;6342961;28;19978;-86
2023/10/07 20:00:20;;;;;;;;;;;;;;;;;;6338067;28;19918;-83
2023/10/07 20:03:20;;;;;;;;;;;;;;;;;;6346063;28;19908;-85
2023/10/07 20:06:20;;;;;;;;;;;;;;;;;;6319086;28;19916;-85
2023/10/07 20:09:21;;;;;;;;;;;;;;;;;;6337075;28;19919;-85
2023/10/07 20:12:21;;;;;;;;;;;;;;;;;;6314640;28;19920;-83
2023/10/07 20:15:22;;;;;;;;;;;;;;;;;;6314423;28;19912;-85
2023/10/07 20:18:23;;;;;;;;;;;;;;;;;;6331791;28;20301;-85
2023/10/07 20:21:24;;;;;;;;;;;;;;;;;;6330508;28;19920;-85
2023/10/07 20:24:25;;;;;;;;;;;;;;;;;;6332211;28;20282;-86
2023/10/07 20:27:25;;;;;;;;;;;;;;;;;;6310117;28;20361;-86
2023/10/07 20:30:25;;;;;;;;;;;;;;;;;;6344902;28;20004;-85
2023/10/07 20:33:26;;;;;;;;;;;;;;;;;;6344855;28;19990;-85
2023/10/07 20:36:26;;;;;;;;;;;;;;;;;;6323971;28;19920;-84
2023/10/07 20:39:26;;;;;;;;;;;;;;;;;;6319875;28;19912;-84
2023/10/07 20:42:26;;;;;;;;;;;;;;;;;;6304752;28;19920;-86
2023/10/07 20:45:26;;;;;;;;;;;;;;;;;;6316388;28;19923;-86
2023/10/07 20:48:26;;;;;;;;;;;;;;;;;;6311118;28;19920;-86
2023/10/07 20:51:27;;;;;;;;;;;;;;;;;;6327894;28;20293;-85
2023/10/07 20:54:27;;;;;;;;;;;;;;;;;;6307940;28;19911;-86
2023/10/07 20:57:27;;;;;;;;;;;;;;;;;;6333249;28;19928;-86
2023/10/07 21:00:28;;;;;;;;;;;;;;;;;;6314908;28;20440;-86
2023/10/07 21:03:28;;;;;;;;;;;;;;;;;;6340187;28;19919;-86
2023/10/07 21:06:29;;;;;;;;;;;;;;;;;;6339527;28;19982;-86
2023/10/07 21:09:31;;;;;;;;;;;;;;;;;;6344706;28;19912;-84
2023/10/07 21:12:31;;;;;;;;;;;;;;;;;;6338053;27;20377;-84
2023/10/07 21:15:31;;;;;;;;;;;;;;;;;;6337262;28;19907;-84
2023/10/07 21:18:31;;;;;;;;;;;;;;;;;;6310930;28;19919;-85
2023/10/07 21:21:31;;;;;;;;;;;;;;;;;;6311281;28;19908;-84
2023/10/07 21:24:31;;;;;;;;;;;;;;;;;;6311549;28;19915;-85